sensor_id;sensor_type;location;lat;lon;timestamp;temperature;humidity
11454;DHT22;5783;55.174;61.310;2022-08-19T00:00:47;22.50;43.30
11454;DHT22;5783;55.174;61.310;2022-08-19T00:03:17;22.50;43.20
11454;DHT22;5783;55.174;61.310;2022-08-19T00:05:46;22.50;43.30
11454;DHT22;5783;55.174;61.310;2022-08-19T00:08:15;22.50;43.30
11454;DHT22;5783;55.174;61.310;2022-08-19T00:10:44;22.40;43.40
11454;DHT22;5783;55.174;61.310;2022-08-19T00:13:14;22.40;43.40
11454;DHT22;5783;55.174;61.310;2022-08-19T00:15:43;22.40;43.30
11454;DHT22;5783;55.174;61.310;2022-08-19T00:18:12;22.40;43.30
11454;DHT22;5783;55.174;61.310;2022-08-19T00:20:42;22.40;43.50
11454;DHT22;5783;55.174;61.310;2022-08-19T00:23:11;22.40;43.60
11454;DHT22;5783;55.174;61.310;2022-08-19T00:25:40;22.40;43.90
11454;DHT22;5783;55.174;61.310;2022-08-19T00:28:09;22.40;44.00
11454;DHT22;5783;55.174;61.310;2022-08-19T00:30:38;22.40;43.80
11454;DHT22;5783;55.174;61.310;2022-08-19T00:33:07;22.40;44.00
11454;DHT22;5783;55.174;61.310;2022-08-19T00:35:36;22.40;43.60
11454;DHT22;5783;55.174;61.310;2022-08-19T00:38:05;22.40;44.20
11454;DHT22;5783;55.174;61.310;2022-08-19T00:40:34;22.40;44.30
11454;DHT22;5783;55.174;61.310;2022-08-19T00:45:54;22.40;44.40
11454;DHT22;5783;55.174;61.310;2022-08-19T00:48:24;22.40;44.40
11454;DHT22;5783;55.174;61.310;2022-08-19T00:50:54;22.40;44.30
11454;DHT22;5783;55.174;61.310;2022-08-19T00:53:26;22.40;44.30
11454;DHT22;5783;55.174;61.310;2022-08-19T00:55:58;22.40;43.90
11454;DHT22;5783;55.174;61.310;2022-08-19T00:58:30;22.40;43.80
11454;DHT22;5783;55.174;61.310;2022-08-19T01:01:00;22.50;43.50
11454;DHT22;5783;55.174;61.310;2022-08-19T01:03:30;22.50;43.40
11454;DHT22;5783;55.174;61.310;2022-08-19T01:06:00;22.50;43.30
11454;DHT22;5783;55.174;61.310;2022-08-19T01:08:29;22.50;43.40
11454;DHT22;5783;55.174;61.310;2022-08-19T01:11:00;22.50;43.50
11454;DHT22;5783;55.174;61.310;2022-08-19T01:13:32;22.40;43.40
11454;DHT22;5783;55.174;61.310;2022-08-19T01:16:05;22.50;43.50
11454;DHT22;5783;55.174;61.310;2022-08-19T01:18:36;22.40;43.50
11454;DHT22;5783;55.174;61.310;2022-08-19T01:21:09;22.50;43.50
11454;DHT22;5783;55.174;61.310;2022-08-19T01:23:38;22.50;43.50
11454;DHT22;5783;55.174;61.310;2022-08-19T01:26:27;22.50;43.50
11454;DHT22;5783;55.174;61.310;2022-08-19T01:28:59;22.50;43.70
11454;DHT22;5783;55.174;61.310;2022-08-19T01:31:29;22.40;43.90
11454;DHT22;5783;55.174;61.310;2022-08-19T01:33:59;22.40;44.00
11454;DHT22;5783;55.174;61.310;2022-08-19T01:39:21;22.50;44.10
11454;DHT22;5783;55.174;61.310;2022-08-19T01:41:52;22.50;43.90
11454;DHT22;5783;55.174;61.310;2022-08-19T01:44:22;22.50;43.90
11454;DHT22;5783;55.174;61.310;2022-08-19T01:46:52;22.50;43.90
11454;DHT22;5783;55.174;61.310;2022-08-19T01:49:23;22.50;44.20
11454;DHT22;5783;55.174;61.310;2022-08-19T01:51:53;22.50;44.10
11454;DHT22;5783;55.174;61.310;2022-08-19T01:54:23;22.60;44.30
11454;DHT22;5783;55.174;61.310;2022-08-19T01:57:29;22.50;44.30
11454;DHT22;5783;55.174;61.310;2022-08-19T01:59:25;22.60;44.30
11454;DHT22;5783;55.174;61.310;2022-08-19T02:01:54;22.50;44.00
11454;DHT22;5783;55.174;61.310;2022-08-19T02:04:23;22.50;43.80
11454;DHT22;5783;55.174;61.310;2022-08-19T02:06:53;22.60;43.60
11454;DHT22;5783;55.174;61.310;2022-08-19T02:09:22;22.60;43.50
11454;DHT22;5783;55.174;61.310;2022-08-19T02:11:52;22.60;43.50
11454;DHT22;5783;55.174;61.310;2022-08-19T02:14:21;22.60;43.60
11454;DHT22;5783;55.174;61.310;2022-08-19T02:16:50;22.50;43.70
11454;DHT22;5783;55.174;61.310;2022-08-19T02:19:19;22.60;43.70
11454;DHT22;5783;55.174;61.310;2022-08-19T02:21:49;22.50;44.20
11454;DHT22;5783;55.174;61.310;2022-08-19T02:24:19;22.50;44.30
11454;DHT22;5783;55.174;61.310;2022-08-19T02:26:48;22.50;44.30
11454;DHT22;5783;55.174;61.310;2022-08-19T02:29:17;22.50;44.40
11454;DHT22;5783;55.174;61.310;2022-08-19T02:31:47;22.50;44.30
11454;DHT22;5783;55.174;61.310;2022-08-19T02:34:17;22.50;44.20
11454;DHT22;5783;55.174;61.310;2022-08-19T02:36:46;22.50;44.10
11454;DHT22;5783;55.174;61.310;2022-08-19T02:39:15;22.50;43.80
11454;DHT22;5783;55.174;61.310;2022-08-19T02:41:44;22.50;43.70
11454;DHT22;5783;55.174;61.310;2022-08-19T02:44:13;22.50;43.80
11454;DHT22;5783;55.174;61.310;2022-08-19T02:46:44;22.50;43.80
11454;DHT22;5783;55.174;61.310;2022-08-19T02:49:14;22.50;43.90
11454;DHT22;5783;55.174;61.310;2022-08-19T02:51:45;22.50;44.00
11454;DHT22;5783;55.174;61.310;2022-08-19T02:54:15;22.50;44.10
11454;DHT22;5783;55.174;61.310;2022-08-19T02:56:45;22.40;44.20
11454;DHT22;5783;55.174;61.310;2022-08-19T02:59:14;22.50;44.40
11454;DHT22;5783;55.174;61.310;2022-08-19T03:01:43;22.50;44.30
11454;DHT22;5783;55.174;61.310;2022-08-19T03:04:14;22.50;44.30
11454;DHT22;5783;55.174;61.310;2022-08-19T03:06:46;22.40;44.30
11454;DHT22;5783;55.174;61.310;2022-08-19T03:09:16;22.40;44.10
11454;DHT22;5783;55.174;61.310;2022-08-19T03:11:46;22.40;44.00
11454;DHT22;5783;55.174;61.310;2022-08-19T03:14:15;22.50;44.10
11454;DHT22;5783;55.174;61.310;2022-08-19T03:19:35;22.50;44.10
11454;DHT22;5783;55.174;61.310;2022-08-19T03:22:04;22.50;44.20
11454;DHT22;5783;55.174;61.310;2022-08-19T03:24:34;22.40;44.00
11454;DHT22;5783;55.174;61.310;2022-08-19T03:27:04;22.40;44.10
11454;DHT22;5783;55.174;61.310;2022-08-19T03:29:36;22.50;44.00
11454;DHT22;5783;55.174;61.310;2022-08-19T03:32:06;22.50;44.10
11454;DHT22;5783;55.174;61.310;2022-08-19T03:34:37;22.50;44.00
11454;DHT22;5783;55.174;61.310;2022-08-19T03:37:09;22.50;44.20
11454;DHT22;5783;55.174;61.310;2022-08-19T03:39:58;22.50;44.10
11454;DHT22;5783;55.174;61.310;2022-08-19T03:42:29;22.50;44.20
11454;DHT22;5783;55.174;61.310;2022-08-19T03:44:58;22.50;44.60
11454;DHT22;5783;55.174;61.310;2022-08-19T03:47:27;22.50;44.80
11454;DHT22;5783;55.174;61.310;2022-08-19T03:49:57;22.50;45.50
11454;DHT22;5783;55.174;61.310;2022-08-19T03:52:26;22.50;44.90
11454;DHT22;5783;55.174;61.310;2022-08-19T03:54:55;22.50;44.80
11454;DHT22;5783;55.174;61.310;2022-08-19T03:57:24;22.50;44.50
11454;DHT22;5783;55.174;61.310;2022-08-19T03:59:53;22.50;44.20
11454;DHT22;5783;55.174;61.310;2022-08-19T04:02:22;22.50;44.10
11454;DHT22;5783;55.174;61.310;2022-08-19T04:04:53;22.50;44.00
11454;DHT22;5783;55.174;61.310;2022-08-19T04:07:22;22.50;44.20
11454;DHT22;5783;55.174;61.310;2022-08-19T04:09:52;22.50;44.10
11454;DHT22;5783;55.174;61.310;2022-08-19T04:12:21;22.60;44.30
11454;DHT22;5783;55.174;61.310;2022-08-19T04:14:50;22.50;44.00
11454;DHT22;5783;55.174;61.310;2022-08-19T04:17:19;22.60;43.90
11454;DHT22;5783;55.174;61.310;2022-08-19T04:19:48;22.60;43.90
11454;DHT22;5783;55.174;61.310;2022-08-19T04:22:18;22.60;43.90
11454;DHT22;5783;55.174;61.310;2022-08-19T04:24:47;22.50;44.00
11454;DHT22;5783;55.174;61.310;2022-08-19T04:27:16;22.60;44.10
11454;DHT22;5783;55.174;61.310;2022-08-19T04:29:45;22.50;44.10
11454;DHT22;5783;55.174;61.310;2022-08-19T04:32:14;22.50;44.10
11454;DHT22;5783;55.174;61.310;2022-08-19T04:34:43;22.50;44.30
11454;DHT22;5783;55.174;61.310;2022-08-19T04:37:12;22.60;43.80
11454;DHT22;5783;55.174;61.310;2022-08-19T04:39:42;22.50;44.00
11454;DHT22;5783;55.174;61.310;2022-08-19T04:42:30;22.50;44.10
11454;DHT22;5783;55.174;61.310;2022-08-19T04:45:19;22.40;44.10
11454;DHT22;5783;55.174;61.310;2022-08-19T04:47:48;22.40;44.10
11454;DHT22;5783;55.174;61.310;2022-08-19T04:50:17;22.40;44.40
11454;DHT22;5783;55.174;61.310;2022-08-19T04:52:46;22.40;44.10
11454;DHT22;5783;55.174;61.310;2022-08-19T04:55:17;22.40;44.40
11454;DHT22;5783;55.174;61.310;2022-08-19T04:57:46;22.50;44.50
11454;DHT22;5783;55.174;61.310;2022-08-19T05:00:17;22.50;43.60
11454;DHT22;5783;55.174;61.310;2022-08-19T05:02:46;22.50;44.00
11454;DHT22;5783;55.174;61.310;2022-08-19T05:05:15;22.50;44.90
11454;DHT22;5783;55.174;61.310;2022-08-19T05:07:45;22.70;43.60
11454;DHT22;5783;55.174;61.310;2022-08-19T05:10:14;22.80;42.70
11454;DHT22;5783;55.174;61.310;2022-08-19T05:12:43;23.00;42.00
11454;DHT22;5783;55.174;61.310;2022-08-19T05:15:12;23.10;41.30
11454;DHT22;5783;55.174;61.310;2022-08-19T05:17:41;23.20;40.80
11454;DHT22;5783;55.174;61.310;2022-08-19T05:20:12;23.20;40.50
11454;DHT22;5783;55.174;61.310;2022-08-19T05:23:01;23.30;40.50
11454;DHT22;5783;55.174;61.310;2022-08-19T05:25:30;23.20;39.90
11454;DHT22;5783;55.174;61.310;2022-08-19T05:27:59;23.20;39.40
11454;DHT22;5783;55.174;61.310;2022-08-19T05:30:28;23.20;39.40
11454;DHT22;5783;55.174;61.310;2022-08-19T05:32:59;23.20;39.50
11454;DHT22;5783;55.174;61.310;2022-08-19T05:35:48;23.20;39.70
11454;DHT22;5783;55.174;61.310;2022-08-19T05:38:19;23.20;39.60
11454;DHT22;5783;55.174;61.310;2022-08-19T05:40:48;23.20;39.20
11454;DHT22;5783;55.174;61.310;2022-08-19T05:43:17;23.20;39.50
11454;DHT22;5783;55.174;61.310;2022-08-19T05:45:46;23.20;39.40
11454;DHT22;5783;55.174;61.310;2022-08-19T05:48:17;23.20;39.40
11454;DHT22;5783;55.174;61.310;2022-08-19T05:50:47;23.20;38.90
11454;DHT22;5783;55.174;61.310;2022-08-19T05:53:18;23.20;38.90
11454;DHT22;5783;55.174;61.310;2022-08-19T05:55:47;23.20;38.80
11454;DHT22;5783;55.174;61.310;2022-08-19T05:58:16;23.20;38.40
11454;DHT22;5783;55.174;61.310;2022-08-19T06:00:45;23.20;38.40
11454;DHT22;5783;55.174;61.310;2022-08-19T06:03:14;23.20;38.40
11454;DHT22;5783;55.174;61.310;2022-08-19T06:05:43;23.20;38.40
11454;DHT22;5783;55.174;61.310;2022-08-19T06:08:14;23.20;38.50
11454;DHT22;5783;55.174;61.310;2022-08-19T06:10:44;23.20;38.10
11454;DHT22;5783;55.174;61.310;2022-08-19T06:13:13;23.20;38.00
11454;DHT22;5783;55.174;61.310;2022-08-19T06:15:43;23.20;38.00
11454;DHT22;5783;55.174;61.310;2022-08-19T06:18:14;23.20;38.10
11454;DHT22;5783;55.174;61.310;2022-08-19T06:20:43;23.10;38.10
11454;DHT22;5783;55.174;61.310;2022-08-19T06:23:12;23.10;38.20
11454;DHT22;5783;55.174;61.310;2022-08-19T06:25:43;23.00;38.30
11454;DHT22;5783;55.174;61.310;2022-08-19T06:28:12;23.00;38.50
11454;DHT22;5783;55.174;61.310;2022-08-19T06:30:41;23.00;38.70
11454;DHT22;5783;55.174;61.310;2022-08-19T06:33:11;22.90;38.80
11454;DHT22;5783;55.174;61.310;2022-08-19T06:35:41;22.90;38.80
11454;DHT22;5783;55.174;61.310;2022-08-19T06:38:10;22.90;38.90
11454;DHT22;5783;55.174;61.310;2022-08-19T06:40:39;22.80;38.90
11454;DHT22;5783;55.174;61.310;2022-08-19T06:43:09;22.80;39.10
11454;DHT22;5783;55.174;61.310;2022-08-19T06:45:38;22.80;39.00
11454;DHT22;5783;55.174;61.310;2022-08-19T06:48:07;22.80;38.80
11454;DHT22;5783;55.174;61.310;2022-08-19T06:50:36;22.80;38.60
11454;DHT22;5783;55.174;61.310;2022-08-19T06:53:05;22.90;38.50
11454;DHT22;5783;55.174;61.310;2022-08-19T06:55:40;22.90;38.50
11454;DHT22;5783;55.174;61.310;2022-08-19T06:58:10;22.80;38.40
11454;DHT22;5783;55.174;61.310;2022-08-19T07:00:39;22.80;38.30
11454;DHT22;5783;55.174;61.310;2022-08-19T07:03:08;22.80;38.30
11454;DHT22;5783;55.174;61.310;2022-08-19T07:05:57;22.80;38.40
11454;DHT22;5783;55.174;61.310;2022-08-19T07:08:28;22.80;38.40
11454;DHT22;5783;55.174;61.310;2022-08-19T07:10:57;22.80;38.60
11454;DHT22;5783;55.174;61.310;2022-08-19T07:13:26;22.80;38.60
11454;DHT22;5783;55.174;61.310;2022-08-19T07:15:56;22.80;38.40
11454;DHT22;5783;55.174;61.310;2022-08-19T07:18:25;22.80;38.40
11454;DHT22;5783;55.174;61.310;2022-08-19T07:23:45;22.80;38.60
11454;DHT22;5783;55.174;61.310;2022-08-19T07:26:37;22.70;38.70
11454;DHT22;5783;55.174;61.310;2022-08-19T07:29:05;22.70;38.80
11454;DHT22;5783;55.174;61.310;2022-08-19T07:31:35;22.60;39.10
11454;DHT22;5783;55.174;61.310;2022-08-19T07:34:06;22.60;39.20
11454;DHT22;5783;55.174;61.310;2022-08-19T07:36:39;22.60;39.30
11454;DHT22;5783;55.174;61.310;2022-08-19T07:39:30;22.60;39.40
11454;DHT22;5783;55.174;61.310;2022-08-19T07:42:02;22.60;39.40
11454;DHT22;5783;55.174;61.310;2022-08-19T07:44:33;22.60;39.10
11454;DHT22;5783;55.174;61.310;2022-08-19T07:47:03;22.60;39.10
11454;DHT22;5783;55.174;61.310;2022-08-19T07:49:33;22.60;39.10
11454;DHT22;5783;55.174;61.310;2022-08-19T07:52:06;22.60;39.20
11454;DHT22;5783;55.174;61.310;2022-08-19T07:54:37;22.60;39.20
11454;DHT22;5783;55.174;61.310;2022-08-19T07:57:08;22.60;39.20
11454;DHT22;5783;55.174;61.310;2022-08-19T07:59:38;22.60;39.20
11454;DHT22;5783;55.174;61.310;2022-08-19T08:02:08;22.60;39.40
11454;DHT22;5783;55.174;61.310;2022-08-19T08:04:38;22.60;39.40
11454;DHT22;5783;55.174;61.310;2022-08-19T08:07:26;22.70;39.70
11454;DHT22;5783;55.174;61.310;2022-08-19T08:10:15;22.70;39.50
11454;DHT22;5783;55.174;61.310;2022-08-19T08:12:44;22.70;39.50
11454;DHT22;5783;55.174;61.310;2022-08-19T08:15:15;22.70;39.40
11454;DHT22;5783;55.174;61.310;2022-08-19T08:17:45;22.70;39.40
11454;DHT22;5783;55.174;61.310;2022-08-19T08:20:14;22.70;39.50
11454;DHT22;5783;55.174;61.310;2022-08-19T08:22:45;22.70;39.30
11454;DHT22;5783;55.174;61.310;2022-08-19T08:25:35;22.70;39.40
11454;DHT22;5783;55.174;61.310;2022-08-19T08:28:05;22.70;39.60
11454;DHT22;5783;55.174;61.310;2022-08-19T08:30:35;22.70;39.80
11454;DHT22;5783;55.174;61.310;2022-08-19T08:33:06;22.70;39.80
11454;DHT22;5783;55.174;61.310;2022-08-19T08:35:35;22.80;39.80
11454;DHT22;5783;55.174;61.310;2022-08-19T08:38:05;22.80;40.00
11454;DHT22;5783;55.174;61.310;2022-08-19T08:40:56;22.80;39.80
11454;DHT22;5783;55.174;61.310;2022-08-19T08:43:45;22.80;39.80
11454;DHT22;5783;55.174;61.310;2022-08-19T08:52:36;22.70;39.80
11454;DHT22;5783;55.174;61.310;2022-08-19T08:55:42;22.60;39.90
11454;DHT22;5783;55.174;61.310;2022-08-19T08:58:13;22.60;40.00
11454;DHT22;5783;55.174;61.310;2022-08-19T09:00:15;22.60;40.10
11454;DHT22;5783;55.174;61.310;2022-08-19T09:02:46;22.70;40.30
11454;DHT22;5783;55.174;61.310;2022-08-19T09:05:15;22.70;40.50
11454;DHT22;5783;55.174;61.310;2022-08-19T09:08:43;22.80;40.60
11454;DHT22;5783;55.174;61.310;2022-08-19T09:13:52;22.80;40.30
11454;DHT22;5783;55.174;61.310;2022-08-19T09:16:20;22.80;39.90
11454;DHT22;5783;55.174;61.310;2022-08-19T09:18:54;22.90;40.00
11454;DHT22;5783;55.174;61.310;2022-08-19T09:21:26;22.90;40.00
11454;DHT22;5783;55.174;61.310;2022-08-19T09:23:55;22.90;39.70
11454;DHT22;5783;55.174;61.310;2022-08-19T09:26:25;23.00;39.90
11454;DHT22;5783;55.174;61.310;2022-08-19T09:28:56;23.00;39.70
11454;DHT22;5783;55.174;61.310;2022-08-19T09:31:28;23.00;39.80
11454;DHT22;5783;55.174;61.310;2022-08-19T09:33:59;23.00;39.40
11454;DHT22;5783;55.174;61.310;2022-08-19T09:36:33;23.00;39.40
11454;DHT22;5783;55.174;61.310;2022-08-19T09:39:22;23.00;39.50
11454;DHT22;5783;55.174;61.310;2022-08-19T09:41:51;23.00;39.50
11454;DHT22;5783;55.174;61.310;2022-08-19T09:44:20;23.00;39.50
11454;DHT22;5783;55.174;61.310;2022-08-19T09:46:49;23.00;39.80
11454;DHT22;5783;55.174;61.310;2022-08-19T09:49:20;23.10;39.80
11454;DHT22;5783;55.174;61.310;2022-08-19T09:52:09;23.10;39.50
11454;DHT22;5783;55.174;61.310;2022-08-19T09:54:39;23.10;39.40
11454;DHT22;5783;55.174;61.310;2022-08-19T09:57:08;23.10;39.30
11454;DHT22;5783;55.174;61.310;2022-08-19T09:59:39;23.10;39.50
11454;DHT22;5783;55.174;61.310;2022-08-19T10:02:08;23.10;39.80
11454;DHT22;5783;55.174;61.310;2022-08-19T10:04:38;23.10;39.50
11454;DHT22;5783;55.174;61.310;2022-08-19T10:07:29;23.10;39.50
11454;DHT22;5783;55.174;61.310;2022-08-19T10:09:58;23.10;39.50
11454;DHT22;5783;55.174;61.310;2022-08-19T10:12:27;23.10;39.60
11454;DHT22;5783;55.174;61.310;2022-08-19T10:14:56;23.10;39.70
11454;DHT22;5783;55.174;61.310;2022-08-19T10:17:26;23.10;39.40
11454;DHT22;5783;55.174;61.310;2022-08-19T10:19:55;23.20;39.50
11454;DHT22;5783;55.174;61.310;2022-08-19T10:22:25;23.20;39.50
11454;DHT22;5783;55.174;61.310;2022-08-19T10:24:54;23.20;39.40
11454;DHT22;5783;55.174;61.310;2022-08-19T10:27:23;23.30;39.40
11454;DHT22;5783;55.174;61.310;2022-08-19T10:29:53;23.30;39.40
11454;DHT22;5783;55.174;61.310;2022-08-19T10:32:22;23.30;39.50
11454;DHT22;5783;55.174;61.310;2022-08-19T10:34:51;23.30;39.40
11454;DHT22;5783;55.174;61.310;2022-08-19T10:37:21;23.40;39.50
11454;DHT22;5783;55.174;61.310;2022-08-19T10:39:50;23.40;39.40
11454;DHT22;5783;55.174;61.310;2022-08-19T10:42:19;23.40;39.40
11454;DHT22;5783;55.174;61.310;2022-08-19T10:44:48;23.40;39.30
11454;DHT22;5783;55.174;61.310;2022-08-19T10:47:18;23.50;39.20
11454;DHT22;5783;55.174;61.310;2022-08-19T10:49:48;23.50;39.10
11454;DHT22;5783;55.174;61.310;2022-08-19T10:52:37;23.50;39.30
11454;DHT22;5783;55.174;61.310;2022-08-19T10:55:07;23.60;39.00
11454;DHT22;5783;55.174;61.310;2022-08-19T10:57:40;23.60;38.80
11454;DHT22;5783;55.174;61.310;2022-08-19T11:00:10;23.60;38.90
11454;DHT22;5783;55.174;61.310;2022-08-19T11:02:39;23.60;39.10
11454;DHT22;5783;55.174;61.310;2022-08-19T11:05:09;23.70;39.50
11454;DHT22;5783;55.174;61.310;2022-08-19T11:07:39;23.70;39.50
11454;DHT22;5783;55.174;61.310;2022-08-19T11:10:10;23.70;40.00
11454;DHT22;5783;55.174;61.310;2022-08-19T11:12:41;23.60;39.50
11454;DHT22;5783;55.174;61.310;2022-08-19T11:15:12;23.70;39.60
11454;DHT22;5783;55.174;61.310;2022-08-19T11:17:41;23.70;39.40
11454;DHT22;5783;55.174;61.310;2022-08-19T11:20:30;23.70;39.40
11454;DHT22;5783;55.174;61.310;2022-08-19T11:22:59;23.80;39.30
11454;DHT22;5783;55.174;61.310;2022-08-19T11:25:29;23.80;39.10
11454;DHT22;5783;55.174;61.310;2022-08-19T11:27:58;23.80;39.10
11454;DHT22;5783;55.174;61.310;2022-08-19T11:30:27;23.90;39.20
11454;DHT22;5783;55.174;61.310;2022-08-19T11:32:56;23.90;39.10
11454;DHT22;5783;55.174;61.310;2022-08-19T11:35:27;23.90;38.90
11454;DHT22;5783;55.174;61.310;2022-08-19T11:37:56;23.90;39.00
11454;DHT22;5783;55.174;61.310;2022-08-19T11:40:27;24.00;39.00
11454;DHT22;5783;55.174;61.310;2022-08-19T11:42:56;24.00;39.00
11454;DHT22;5783;55.174;61.310;2022-08-19T11:45:26;24.10;38.90
11454;DHT22;5783;55.174;61.310;2022-08-19T11:47:57;24.10;38.20
11454;DHT22;5783;55.174;61.310;2022-08-19T11:50:26;24.10;38.70
11454;DHT22;5783;55.174;61.310;2022-08-19T11:52:56;24.10;38.60
11454;DHT22;5783;55.174;61.310;2022-08-19T11:55:26;24.10;38.50
11454;DHT22;5783;55.174;61.310;2022-08-19T11:57:55;24.10;38.50
11454;DHT22;5783;55.174;61.310;2022-08-19T12:00:25;24.10;38.60
11454;DHT22;5783;55.174;61.310;2022-08-19T12:02:54;24.10;38.60
11454;DHT22;5783;55.174;61.310;2022-08-19T12:05:23;24.10;38.60
11454;DHT22;5783;55.174;61.310;2022-08-19T12:07:52;24.10;38.80
11454;DHT22;5783;55.174;61.310;2022-08-19T12:10:23;24.10;38.60
11454;DHT22;5783;55.174;61.310;2022-08-19T12:12:52;24.10;38.60
11454;DHT22;5783;55.174;61.310;2022-08-19T12:15:21;24.10;38.40
11454;DHT22;5783;55.174;61.310;2022-08-19T12:17:51;24.10;38.40
11454;DHT22;5783;55.174;61.310;2022-08-19T12:20:22;24.10;38.30
11454;DHT22;5783;55.174;61.310;2022-08-19T12:22:51;24.10;38.40
11454;DHT22;5783;55.174;61.310;2022-08-19T12:25:21;24.10;38.40
11454;DHT22;5783;55.174;61.310;2022-08-19T12:27:50;24.10;38.20
11454;DHT22;5783;55.174;61.310;2022-08-19T12:30:19;24.00;38.30
11454;DHT22;5783;55.174;61.310;2022-08-19T12:32:48;24.00;38.40
11454;DHT22;5783;55.174;61.310;2022-08-19T12:35:18;24.00;38.80
11454;DHT22;5783;55.174;61.310;2022-08-19T12:37:48;24.10;38.90
11454;DHT22;5783;55.174;61.310;2022-08-19T12:40:19;24.10;38.70
11454;DHT22;5783;55.174;61.310;2022-08-19T12:42:48;24.10;38.60
11454;DHT22;5783;55.174;61.310;2022-08-19T12:45:17;24.10;38.70
11454;DHT22;5783;55.174;61.310;2022-08-19T12:47:47;24.10;38.60
11454;DHT22;5783;55.174;61.310;2022-08-19T12:50:16;24.10;38.70
11454;DHT22;5783;55.174;61.310;2022-08-19T12:52:45;24.10;38.60
11454;DHT22;5783;55.174;61.310;2022-08-19T12:55:14;24.20;38.80
11454;DHT22;5783;55.174;61.310;2022-08-19T12:57:45;24.20;39.00
11454;DHT22;5783;55.174;61.310;2022-08-19T13:00:18;24.20;39.00
11454;DHT22;5783;55.174;61.310;2022-08-19T13:02:50;24.30;38.90
11454;DHT22;5783;55.174;61.310;2022-08-19T13:05:23;24.20;38.90
11454;DHT22;5783;55.174;61.310;2022-08-19T13:07:53;24.30;38.90
11454;DHT22;5783;55.174;61.310;2022-08-19T13:10:24;24.20;39.00
11454;DHT22;5783;55.174;61.310;2022-08-19T13:12:56;24.20;38.90
11454;DHT22;5783;55.174;61.310;2022-08-19T13:15:26;24.20;39.00
11454;DHT22;5783;55.174;61.310;2022-08-19T13:17:57;24.20;39.10
11454;DHT22;5783;55.174;61.310;2022-08-19T13:20:27;24.20;39.20
11454;DHT22;5783;55.174;61.310;2022-08-19T13:22:56;24.20;39.20
11454;DHT22;5783;55.174;61.310;2022-08-19T13:25:25;24.20;39.30
11454;DHT22;5783;55.174;61.310;2022-08-19T13:27:54;24.20;38.70
11454;DHT22;5783;55.174;61.310;2022-08-19T13:30:24;24.20;39.50
11454;DHT22;5783;55.174;61.310;2022-08-19T13:33:12;24.20;39.40
11454;DHT22;5783;55.174;61.310;2022-08-19T13:36:01;24.10;39.50
11454;DHT22;5783;55.174;61.310;2022-08-19T13:38:32;24.10;39.60
11454;DHT22;5783;55.174;61.310;2022-08-19T13:41:04;24.10;39.80
11454;DHT22;5783;55.174;61.310;2022-08-19T13:43:36;24.10;39.80
11454;DHT22;5783;55.174;61.310;2022-08-19T13:49:15;24.10;40.10
11454;DHT22;5783;55.174;61.310;2022-08-19T13:51:45;24.10;40.10
11454;DHT22;5783;55.174;61.310;2022-08-19T13:54:14;24.00;40.20
11454;DHT22;5783;55.174;61.310;2022-08-19T13:56:46;24.00;40.30
11454;DHT22;5783;55.174;61.310;2022-08-19T14:01:46;24.00;40.30
11454;DHT22;5783;55.174;61.310;2022-08-19T14:04:15;24.00;40.30
11454;DHT22;5783;55.174;61.310;2022-08-19T14:06:46;24.00;40.40
11454;DHT22;5783;55.174;61.310;2022-08-19T14:09:15;24.00;40.50
11454;DHT22;5783;55.174;61.310;2022-08-19T14:11:44;24.00;40.50
11454;DHT22;5783;55.174;61.310;2022-08-19T14:14:13;24.00;40.70
11454;DHT22;5783;55.174;61.310;2022-08-19T14:16:42;24.00;40.60
11454;DHT22;5783;55.174;61.310;2022-08-19T14:19:12;24.00;40.60
11454;DHT22;5783;55.174;61.310;2022-08-19T14:21:41;24.00;40.70
11454;DHT22;5783;55.174;61.310;2022-08-19T14:24:10;24.10;40.70
11454;DHT22;5783;55.174;61.310;2022-08-19T14:26:39;24.00;40.70
11454;DHT22;5783;55.174;61.310;2022-08-19T14:29:08;24.10;40.90
11454;DHT22;5783;55.174;61.310;2022-08-19T14:31:37;24.10;40.90
11454;DHT22;5783;55.174;61.310;2022-08-19T14:34:08;24.10;40.80
11454;DHT22;5783;55.174;61.310;2022-08-19T14:36:39;24.10;40.90
11454;DHT22;5783;55.174;61.310;2022-08-19T14:39:09;24.10;40.90
11454;DHT22;5783;55.174;61.310;2022-08-19T14:41:40;24.10;40.90
11454;DHT22;5783;55.174;61.310;2022-08-19T14:44:09;24.10;40.90
11454;DHT22;5783;55.174;61.310;2022-08-19T14:46:40;24.10;41.00
11454;DHT22;5783;55.174;61.310;2022-08-19T14:49:11;24.10;40.50
11454;DHT22;5783;55.174;61.310;2022-08-19T14:52:00;24.10;41.10
11454;DHT22;5783;55.174;61.310;2022-08-19T14:54:29;24.10;41.10
11454;DHT22;5783;55.174;61.310;2022-08-19T15:00:08;24.10;41.10
11454;DHT22;5783;55.174;61.310;2022-08-19T15:02:57;24.00;41.30
11454;DHT22;5783;55.174;61.310;2022-08-19T15:05:26;24.00;41.30
11454;DHT22;5783;55.174;61.310;2022-08-19T15:07:55;24.00;41.40
11454;DHT22;5783;55.174;61.310;2022-08-19T15:10:24;23.90;41.50
11454;DHT22;5783;55.174;61.310;2022-08-19T15:12:53;23.90;41.60
11454;DHT22;5783;55.174;61.310;2022-08-19T15:15:22;23.90;41.70
11454;DHT22;5783;55.174;61.310;2022-08-19T15:17:52;23.90;41.60
11454;DHT22;5783;55.174;61.310;2022-08-19T15:20:21;23.90;41.70
11454;DHT22;5783;55.174;61.310;2022-08-19T15:22:50;23.90;41.70
11454;DHT22;5783;55.174;61.310;2022-08-19T15:25:20;23.90;41.80
11454;DHT22;5783;55.174;61.310;2022-08-19T15:27:49;23.90;41.90
11454;DHT22;5783;55.174;61.310;2022-08-19T15:30:22;23.90;41.90
11454;DHT22;5783;55.174;61.310;2022-08-19T15:32:51;23.90;42.10
11454;DHT22;5783;55.174;61.310;2022-08-19T15:35:21;23.90;42.20
11454;DHT22;5783;55.174;61.310;2022-08-19T15:37:52;23.90;42.20
11454;DHT22;5783;55.174;61.310;2022-08-19T15:40:23;23.90;42.20
11454;DHT22;5783;55.174;61.310;2022-08-19T15:42:53;23.90;42.10
11454;DHT22;5783;55.174;61.310;2022-08-19T15:45:24;23.90;42.10
11454;DHT22;5783;55.174;61.310;2022-08-19T15:47:55;23.90;42.20
11454;DHT22;5783;55.174;61.310;2022-08-19T15:50:24;23.90;42.20
11454;DHT22;5783;55.174;61.310;2022-08-19T15:52:56;23.90;42.30
11454;DHT22;5783;55.174;61.310;2022-08-19T15:55:29;24.00;42.40
11454;DHT22;5783;55.174;61.310;2022-08-19T15:58:18;23.90;42.40
11454;DHT22;5783;55.174;61.310;2022-08-19T16:01:07;23.90;42.80
11454;DHT22;5783;55.174;61.310;2022-08-19T16:03:57;23.90;43.00
11454;DHT22;5783;55.174;61.310;2022-08-19T16:06:49;23.80;42.90
11454;DHT22;5783;55.174;61.310;2022-08-19T16:09:21;23.80;43.00
11454;DHT22;5783;55.174;61.310;2022-08-19T16:11:50;23.80;43.10
11454;DHT22;5783;55.174;61.310;2022-08-19T16:14:19;23.80;43.20
11454;DHT22;5783;55.174;61.310;2022-08-19T16:16:48;23.80;43.30
11454;DHT22;5783;55.174;61.310;2022-08-19T16:19:19;23.80;43.40
11454;DHT22;5783;55.174;61.310;2022-08-19T16:21:50;23.80;43.30
11454;DHT22;5783;55.174;61.310;2022-08-19T16:24:24;23.80;43.30